Terminal Aerodrome Forecast
Issued by NWS

Home | Current Version | Previous Version | Text Only | Print | Product List | Glossary On
Versions: 1 2 3 4 5 6 7 8 9 10 11 12 13 14 15 16 17 18 19 20 21 22
000
FTUS41 KBTV 250531
TAFPBG
TAF
KPBG 250531Z 2506/2606 VRB03KT P6SM FEW250
     FM251200 20007KT P6SM FEW250
     FM251700 19008KT P6SM SCT040
     FM252100 18007KT 6SM -SHRA BR OVC040
     FM260000 20009KT P6SM OVC040
     FM260400 24008KT P6SM OVC030=

USA.gov is the U.S. government's official web portal to all federal, state and local government web resources and services.